Rechercher aéroport 
image banner adimage banner adimage banner ad
image banner ad

KNLC - Lemoore Nas (Reeves Fld)

Situé à Lemoore, United States

ICAO - NLC, IATA -

Données fournies par Airmate  

Information générale

Coordonnées: N36°19'59" W119°57'8"
Élévation : 229 feet MSL.
Variation magnétique : 14° East
Voir autres Aéroports à California

Données opérationnelles

Special qualification required
Heure actuelle UTC:
Heure actuelle locale:
Météo
METAR: KNLC 251256Z AUTO 36003KT 6SM HZ CLR 21/07 A2988 RMK AO2 SLP116 T02110067
TAF: TAF KNLC 2423/2523 VRB06KT 9999 SCT200 QNH2978INS TEMPO 2423/2503 01006G16KT T20/2513Z T38/2523Z FS30171
Voir NOTAMs / SUP AIP / TFR affectant cet aéroport [VIEW]
Fréquences de communication: [VIEW]

Pistes:

Identifiant RWYQFULongueur (ft)Largeur (ft)SurfaceLDA (ft)
14R156°13501200CONC
32L336°13501200CONC
14L156°13502200CONC
32R336°13502200CONC

Coordonnées de l'aéroport

Adresse: Lemoore United States

Vue satellite de KNLC